sensor_id;sensor_type;location;lat;lon;timestamp;temperature;humidity
73780;SHT30;62093;37.614;15.072;2023-01-09T00:00:27;17.24;58.21
73780;SHT30;62093;37.614;15.072;2023-01-09T00:02:53;17.23;58.11
73780;SHT30;62093;37.614;15.072;2023-01-09T00:05:20;17.20;58.69
73780;SHT30;62093;37.614;15.072;2023-01-09T00:07:46;17.20;58.76
73780;SHT30;62093;37.614;15.072;2023-01-09T00:10:13;17.18;58.26
73780;SHT30;62093;37.614;15.072;2023-01-09T00:12:40;17.20;58.34
73780;SHT30;62093;37.614;15.072;2023-01-09T00:15:06;17.18;58.13
73780;SHT30;62093;37.614;15.072;2023-01-09T00:17:33;17.15;58.65
73780;SHT30;62093;37.614;15.072;2023-01-09T00:19:59;17.14;58.39
73780;SHT30;62093;37.614;15.072;2023-01-09T00:22:25;17.15;58.66
73780;SHT30;62093;37.614;15.072;2023-01-09T00:24:51;17.13;58.54
73780;SHT30;62093;37.614;15.072;2023-01-09T00:27:17;17.10;57.72
73780;SHT30;62093;37.614;15.072;2023-01-09T00:29:43;17.08;57.04
73780;SHT30;62093;37.614;15.072;2023-01-09T00:32:14;17.10;57.99
73780;SHT30;62093;37.614;15.072;2023-01-09T00:34:41;17.07;57.52
73780;SHT30;62093;37.614;15.072;2023-01-09T00:37:08;17.07;57.85
73780;SHT30;62093;37.614;15.072;2023-01-09T00:39:38;17.06;58.35
73780;SHT30;62093;37.614;15.072;2023-01-09T00:42:06;17.06;57.85
73780;SHT30;62093;37.614;15.072;2023-01-09T00:44:40;17.06;58.07
73780;SHT30;62093;37.614;15.072;2023-01-09T00:47:12;17.03;58.55
73780;SHT30;62093;37.614;15.072;2023-01-09T00:49:40;17.03;58.06
73780;SHT30;62093;37.614;15.072;2023-01-09T00:52:08;17.04;57.96
73780;SHT30;62093;37.614;15.072;2023-01-09T00:54:35;17.01;58.42
73780;SHT30;62093;37.614;15.072;2023-01-09T00:57:01;17.03;58.85
73780;SHT30;62093;37.614;15.072;2023-01-09T00:59:27;16.99;58.88
73780;SHT30;62093;37.614;15.072;2023-01-09T01:01:54;17.00;59.21
73780;SHT30;62093;37.614;15.072;2023-01-09T01:04:20;16.99;59.47
73780;SHT30;62093;37.614;15.072;2023-01-09T01:07:15;16.99;59.57
73780;SHT30;62093;37.614;15.072;2023-01-09T01:09:59;16.97;59.78
73780;SHT30;62093;37.614;15.072;2023-01-09T01:12:26;16.95;59.61
73780;SHT30;62093;37.614;15.072;2023-01-09T01:14:52;16.95;58.89
73780;SHT30;62093;37.614;15.072;2023-01-09T01:17:18;16.94;59.03
73780;SHT30;62093;37.614;15.072;2023-01-09T01:19:45;16.90;58.73
73780;SHT30;62093;37.614;15.072;2023-01-09T01:22:11;16.88;59.87
73780;SHT30;62093;37.614;15.072;2023-01-09T01:24:37;16.90;59.95
73780;SHT30;62093;37.614;15.072;2023-01-09T01:27:03;16.90;60.15
73780;SHT30;62093;37.614;15.072;2023-01-09T01:29:29;16.88;60.06
73780;SHT30;62093;37.614;15.072;2023-01-09T01:31:55;16.85;60.12
73780;SHT30;62093;37.614;15.072;2023-01-09T01:34:21;16.87;60.35
73780;SHT30;62093;37.614;15.072;2023-01-09T01:36:47;16.84;60.47
73780;SHT30;62093;37.614;15.072;2023-01-09T01:39:13;16.83;60.22
73780;SHT30;62093;37.614;15.072;2023-01-09T01:41:39;16.81;60.43
73780;SHT30;62093;37.614;15.072;2023-01-09T01:44:55;16.80;60.26
73780;SHT30;62093;37.614;15.072;2023-01-09T01:46:53;16.79;60.43
73780;SHT30;62093;37.614;15.072;2023-01-09T01:49:20;16.79;60.52
73780;SHT30;62093;37.614;15.072;2023-01-09T01:51:51;16.76;60.47
73780;SHT30;62093;37.614;15.072;2023-01-09T01:54:24;16.76;60.78
73780;SHT30;62093;37.614;15.072;2023-01-09T01:56:54;16.73;60.52
73780;SHT30;62093;37.614;15.072;2023-01-09T01:59:27;16.73;60.56
73780;SHT30;62093;37.614;15.072;2023-01-09T02:01:57;16.73;60.99
73780;SHT30;62093;37.614;15.072;2023-01-09T02:04:24;16.70;60.56
73780;SHT30;62093;37.614;15.072;2023-01-09T02:06:52;16.64;60.92
73780;SHT30;62093;37.614;15.072;2023-01-09T02:09:19;16.66;60.89
73780;SHT30;62093;37.614;15.072;2023-01-09T02:11:49;16.64;60.85
73780;SHT30;62093;37.614;15.072;2023-01-09T02:14:19;16.63;60.86
73780;SHT30;62093;37.614;15.072;2023-01-09T02:30:43;16.56;61.34
73780;SHT30;62093;37.614;15.072;2023-01-09T02:41:14;16.51;61.26
73780;SHT30;62093;37.614;15.072;2023-01-09T02:43:41;16.49;60.96
73780;SHT30;62093;37.614;15.072;2023-01-09T02:46:18;16.49;61.41
73780;SHT30;62093;37.614;15.072;2023-01-09T02:48:45;16.46;61.29
73780;SHT30;62093;37.614;15.072;2023-01-09T02:54:21;16.46;61.58
73780;SHT30;62093;37.614;15.072;2023-01-09T02:59:39;16.45;61.32
73780;SHT30;62093;37.614;15.072;2023-01-09T03:04:43;16.42;61.48
73780;SHT30;62093;37.614;15.072;2023-01-09T03:07:24;16.41;61.78
73780;SHT30;62093;37.614;15.072;2023-01-09T03:10:00;16.41;61.59
73780;SHT30;62093;37.614;15.072;2023-01-09T03:12:30;16.39;61.69
73780;SHT30;62093;37.614;15.072;2023-01-09T03:14:58;16.41;61.57
73780;SHT30;62093;37.614;15.072;2023-01-09T03:17:42;16.38;61.87
73780;SHT30;62093;37.614;15.072;2023-01-09T03:20:12;16.35;61.45
73780;SHT30;62093;37.614;15.072;2023-01-09T03:22:46;16.33;61.51
73780;SHT30;62093;37.614;15.072;2023-01-09T03:25:13;16.32;61.64
73780;SHT30;62093;37.614;15.072;2023-01-09T03:27:43;16.33;61.81
73780;SHT30;62093;37.614;15.072;2023-01-09T03:30:09;16.30;61.63
73780;SHT30;62093;37.614;15.072;2023-01-09T03:32:35;16.30;61.96
73780;SHT30;62093;37.614;15.072;2023-01-09T03:35:01;16.30;61.83
73780;SHT30;62093;37.614;15.072;2023-01-09T03:37:27;16.30;61.69
73780;SHT30;62093;37.614;15.072;2023-01-09T03:39:53;16.29;62.09
73780;SHT30;62093;37.614;15.072;2023-01-09T03:42:19;16.29;62.03
73780;SHT30;62093;37.614;15.072;2023-01-09T03:44:45;16.28;62.10
73780;SHT30;62093;37.614;15.072;2023-01-09T03:47:10;16.26;62.05
73780;SHT30;62093;37.614;15.072;2023-01-09T03:49:36;16.25;62.22
73780;SHT30;62093;37.614;15.072;2023-01-09T03:52:02;16.25;62.14
73780;SHT30;62093;37.614;15.072;2023-01-09T03:54:28;16.26;62.13
73780;SHT30;62093;37.614;15.072;2023-01-09T03:56:54;16.25;62.21
73780;SHT30;62093;37.614;15.072;2023-01-09T03:59:20;16.25;62.12
73780;SHT30;62093;37.614;15.072;2023-01-09T04:01:46;16.26;62.27
73780;SHT30;62093;37.614;15.072;2023-01-09T04:04:12;16.23;62.15
73780;SHT30;62093;37.614;15.072;2023-01-09T04:06:38;16.25;62.32
73780;SHT30;62093;37.614;15.072;2023-01-09T04:09:04;16.26;62.20
73780;SHT30;62093;37.614;15.072;2023-01-09T04:11:30;16.23;61.87
73780;SHT30;62093;37.614;15.072;2023-01-09T04:13:56;16.23;61.77
73780;SHT30;62093;37.614;15.072;2023-01-09T04:16:22;16.21;61.63
73780;SHT30;62093;37.614;15.072;2023-01-09T04:18:48;16.21;61.67
73780;SHT30;62093;37.614;15.072;2023-01-09T04:21:14;16.19;61.96
73780;SHT30;62093;37.614;15.072;2023-01-09T04:23:40;16.21;62.20
73780;SHT30;62093;37.614;15.072;2023-01-09T04:26:06;16.22;61.90
73780;SHT30;62093;37.614;15.072;2023-01-09T04:28:32;16.19;61.95
73780;SHT30;62093;37.614;15.072;2023-01-09T04:30:58;16.18;62.06
73780;SHT30;62093;37.614;15.072;2023-01-09T04:33:24;16.19;62.20
73780;SHT30;62093;37.614;15.072;2023-01-09T04:35:50;16.18;62.21
73780;SHT30;62093;37.614;15.072;2023-01-09T04:38:16;16.18;62.17
73780;SHT30;62093;37.614;15.072;2023-01-09T04:40:42;16.18;62.17
73780;SHT30;62093;37.614;15.072;2023-01-09T04:43:08;16.16;62.26
73780;SHT30;62093;37.614;15.072;2023-01-09T04:45:34;16.15;62.06
73780;SHT30;62093;37.614;15.072;2023-01-09T04:48:04;16.15;61.68
73780;SHT30;62093;37.614;15.072;2023-01-09T04:50:30;16.16;62.11
73780;SHT30;62093;37.614;15.072;2023-01-09T04:52:56;16.19;62.17
73780;SHT30;62093;37.614;15.072;2023-01-09T04:55:22;16.16;61.60
73780;SHT30;62093;37.614;15.072;2023-01-09T04:57:48;16.15;61.73
73780;SHT30;62093;37.614;15.072;2023-01-09T05:00:14;16.15;62.11
73780;SHT30;62093;37.614;15.072;2023-01-09T05:02:40;16.13;61.73
73780;SHT30;62093;37.614;15.072;2023-01-09T05:05:07;16.13;61.91
73780;SHT30;62093;37.614;15.072;2023-01-09T05:07:34;16.12;62.04
73780;SHT30;62093;37.614;15.072;2023-01-09T05:10:01;16.11;62.24
73780;SHT30;62093;37.614;15.072;2023-01-09T05:12:27;16.11;61.97
73780;SHT30;62093;37.614;15.072;2023-01-09T05:14:53;16.11;61.67
73780;SHT30;62093;37.614;15.072;2023-01-09T05:17:19;16.06;61.78
73780;SHT30;62093;37.614;15.072;2023-01-09T05:19:45;16.08;61.66
73780;SHT30;62093;37.614;15.072;2023-01-09T05:22:11;16.09;61.92
73780;SHT30;62093;37.614;15.072;2023-01-09T05:24:37;16.06;62.08
73780;SHT30;62093;37.614;15.072;2023-01-09T05:27:03;16.08;62.14
73780;SHT30;62093;37.614;15.072;2023-01-09T05:29:29;16.08;62.08
73780;SHT30;62093;37.614;15.072;2023-01-09T05:31:55;16.09;61.98
73780;SHT30;62093;37.614;15.072;2023-01-09T05:34:22;16.06;60.42
73780;SHT30;62093;37.614;15.072;2023-01-09T05:36:48;16.04;61.52
73780;SHT30;62093;37.614;15.072;2023-01-09T05:39:14;16.06;61.89
73780;SHT30;62093;37.614;15.072;2023-01-09T05:41:40;16.05;61.32
73780;SHT30;62093;37.614;15.072;2023-01-09T05:44:06;16.06;60.29
73780;SHT30;62093;37.614;15.072;2023-01-09T05:46:32;16.04;61.10
73780;SHT30;62093;37.614;15.072;2023-01-09T05:48:58;16.06;60.85
73780;SHT30;62093;37.614;15.072;2023-01-09T05:51:24;16.05;61.40
73780;SHT30;62093;37.614;15.072;2023-01-09T05:53:50;16.05;61.18
73780;SHT30;62093;37.614;15.072;2023-01-09T05:56:16;16.05;61.38
73780;SHT30;62093;37.614;15.072;2023-01-09T05:58:42;16.06;61.16
73780;SHT30;62093;37.614;15.072;2023-01-09T06:01:08;16.04;61.29
73780;SHT30;62093;37.614;15.072;2023-01-09T06:03:34;16.08;61.33
73780;SHT30;62093;37.614;15.072;2023-01-09T06:06:00;16.05;60.37
73780;SHT30;62093;37.614;15.072;2023-01-09T06:08:26;16.02;60.46
73780;SHT30;62093;37.614;15.072;2023-01-09T06:10:52;16.04;61.36
73780;SHT30;62093;37.614;15.072;2023-01-09T06:13:18;16.05;61.01
73780;SHT30;62093;37.614;15.072;2023-01-09T06:15:46;16.05;61.16
73780;SHT30;62093;37.614;15.072;2023-01-09T06:18:12;16.06;60.99
73780;SHT30;62093;37.614;15.072;2023-01-09T06:20:38;16.05;61.32
73780;SHT30;62093;37.614;15.072;2023-01-09T06:23:04;16.02;61.12
73780;SHT30;62093;37.614;15.072;2023-01-09T06:25:30;16.05;61.26
73780;SHT30;62093;37.614;15.072;2023-01-09T06:27:56;16.04;60.88
73780;SHT30;62093;37.614;15.072;2023-01-09T06:30:22;16.06;61.01
73780;SHT30;62093;37.614;15.072;2023-01-09T06:32:48;16.06;60.94
73780;SHT30;62093;37.614;15.072;2023-01-09T06:35:15;16.06;60.70
73780;SHT30;62093;37.614;15.072;2023-01-09T06:37:46;16.04;61.26
73780;SHT30;62093;37.614;15.072;2023-01-09T06:40:12;16.06;61.44
73780;SHT30;62093;37.614;15.072;2023-01-09T06:42:42;16.08;61.21
73780;SHT30;62093;37.614;15.072;2023-01-09T06:45:09;16.05;61.13
73780;SHT30;62093;37.614;15.072;2023-01-09T06:47:35;16.06;61.47
73780;SHT30;62093;37.614;15.072;2023-01-09T06:50:01;16.06;61.34
73780;SHT30;62093;37.614;15.072;2023-01-09T06:52:27;16.06;60.59
73780;SHT30;62093;37.614;15.072;2023-01-09T06:54:53;16.08;60.97
73780;SHT30;62093;37.614;15.072;2023-01-09T06:57:19;16.06;60.76
73780;SHT30;62093;37.614;15.072;2023-01-09T06:59:45;16.06;60.74
73780;SHT30;62093;37.614;15.072;2023-01-09T07:02:17;16.05;61.05
73780;SHT30;62093;37.614;15.072;2023-01-09T07:04:44;16.08;61.29
73780;SHT30;62093;37.614;15.072;2023-01-09T07:07:10;16.09;61.29
73780;SHT30;62093;37.614;15.072;2023-01-09T07:09:36;16.09;61.09
73780;SHT30;62093;37.614;15.072;2023-01-09T07:12:03;16.09;61.20
73780;SHT30;62093;37.614;15.072;2023-01-09T07:14:29;16.11;61.35
73780;SHT30;62093;37.614;15.072;2023-01-09T07:16:55;16.13;61.03
73780;SHT30;62093;37.614;15.072;2023-01-09T07:19:21;16.11;61.15
73780;SHT30;62093;37.614;15.072;2023-01-09T07:21:47;16.11;60.64
73780;SHT30;62093;37.614;15.072;2023-01-09T07:24:13;16.11;60.86
73780;SHT30;62093;37.614;15.072;2023-01-09T07:26:39;16.08;60.55
73780;SHT30;62093;37.614;15.072;2023-01-09T07:29:05;16.09;60.81
73780;SHT30;62093;37.614;15.072;2023-01-09T07:31:31;16.11;60.82
73780;SHT30;62093;37.614;15.072;2023-01-09T07:33:57;16.11;60.83
73780;SHT30;62093;37.614;15.072;2023-01-09T07:36:23;16.11;60.57
73780;SHT30;62093;37.614;15.072;2023-01-09T07:38:49;16.12;60.81
73780;SHT30;62093;37.614;15.072;2023-01-09T07:41:15;16.13;60.18
73780;SHT30;62093;37.614;15.072;2023-01-09T07:43:40;16.13;60.77
73780;SHT30;62093;37.614;15.072;2023-01-09T07:46:06;16.13;60.46
73780;SHT30;62093;37.614;15.072;2023-01-09T07:48:32;16.15;60.30
73780;SHT30;62093;37.614;15.072;2023-01-09T07:50:58;16.18;60.27
73780;SHT30;62093;37.614;15.072;2023-01-09T07:53:24;16.19;60.39
73780;SHT30;62093;37.614;15.072;2023-01-09T07:55:50;16.19;60.54
73780;SHT30;62093;37.614;15.072;2023-01-09T07:58:16;16.21;59.51
73780;SHT30;62093;37.614;15.072;2023-01-09T08:00:42;16.19;59.82
73780;SHT30;62093;37.614;15.072;2023-01-09T08:03:08;16.19;60.01
73780;SHT30;62093;37.614;15.072;2023-01-09T08:05:34;16.22;59.24
73780;SHT30;62093;37.614;15.072;2023-01-09T08:08:00;16.23;59.98
73780;SHT30;62093;37.614;15.072;2023-01-09T08:10:26;16.25;59.85
73780;SHT30;62093;37.614;15.072;2023-01-09T08:12:52;16.28;60.17
73780;SHT30;62093;37.614;15.072;2023-01-09T08:15:19;16.28;59.16
73780;SHT30;62093;37.614;15.072;2023-01-09T08:17:45;16.23;59.50
73780;SHT30;62093;37.614;15.072;2023-01-09T08:20:14;16.30;60.10
73780;SHT30;62093;37.614;15.072;2023-01-09T08:22:41;16.30;57.69
73780;SHT30;62093;37.614;15.072;2023-01-09T08:25:09;16.30;58.82
73780;SHT30;62093;37.614;15.072;2023-01-09T08:27:35;16.33;59.66
73780;SHT30;62093;37.614;15.072;2023-01-09T08:30:01;16.32;58.74
73780;SHT30;62093;37.614;15.072;2023-01-09T08:32:27;16.30;58.61
73780;SHT30;62093;37.614;15.072;2023-01-09T08:34:53;16.35;58.55
73780;SHT30;62093;37.614;15.072;2023-01-09T08:37:19;16.36;58.15
73780;SHT30;62093;37.614;15.072;2023-01-09T08:39:45;16.35;58.25
73780;SHT30;62093;37.614;15.072;2023-01-09T08:42:11;16.39;59.27
73780;SHT30;62093;37.614;15.072;2023-01-09T08:44:55;16.36;58.89
73780;SHT30;62093;37.614;15.072;2023-01-09T08:47:40;16.36;58.47
73780;SHT30;62093;37.614;15.072;2023-01-09T08:50:06;16.39;58.59
73780;SHT30;62093;37.614;15.072;2023-01-09T08:52:32;16.39;58.77
73780;SHT30;62093;37.614;15.072;2023-01-09T08:54:58;16.41;58.93
73780;SHT30;62093;37.614;15.072;2023-01-09T08:57:24;16.38;58.67
73780;SHT30;62093;37.614;15.072;2023-01-09T08:59:50;16.38;58.47
73780;SHT30;62093;37.614;15.072;2023-01-09T09:02:16;16.42;58.22
73780;SHT30;62093;37.614;15.072;2023-01-09T09:04:42;16.42;58.69
73780;SHT30;62093;37.614;15.072;2023-01-09T09:07:08;16.43;58.64
73780;SHT30;62093;37.614;15.072;2023-01-09T09:09:34;16.46;57.79
73780;SHT30;62093;37.614;15.072;2023-01-09T09:12:00;16.46;57.72
73780;SHT30;62093;37.614;15.072;2023-01-09T09:14:26;16.43;57.60
73780;SHT30;62093;37.614;15.072;2023-01-09T09:17:11;16.45;58.05
73780;SHT30;62093;37.614;15.072;2023-01-09T09:19:37;16.48;58.71
73780;SHT30;62093;37.614;15.072;2023-01-09T09:22:04;16.51;58.29
73780;SHT30;62093;37.614;15.072;2023-01-09T09:24:30;16.46;58.39
73780;SHT30;62093;37.614;15.072;2023-01-09T09:26:56;16.51;56.57
73780;SHT30;62093;37.614;15.072;2023-01-09T09:29:22;16.51;56.73
73780;SHT30;62093;37.614;15.072;2023-01-09T09:31:48;16.53;56.94
73780;SHT30;62093;37.614;15.072;2023-01-09T09:34:13;16.52;56.46
73780;SHT30;62093;37.614;15.072;2023-01-09T09:36:39;16.52;57.08
73780;SHT30;62093;37.614;15.072;2023-01-09T09:39:05;16.52;57.12
73780;SHT30;62093;37.614;15.072;2023-01-09T09:47:41;16.51;57.18
73780;SHT30;62093;37.614;15.072;2023-01-09T09:55:33;16.53;56.66
73780;SHT30;62093;37.614;15.072;2023-01-09T09:58:35;16.52;56.84
73780;SHT30;62093;37.614;15.072;2023-01-09T10:01:03;16.53;57.82
73780;SHT30;62093;37.614;15.072;2023-01-09T10:06:34;16.53;55.52
73780;SHT30;62093;37.614;15.072;2023-01-09T10:09:22;16.55;56.29
73780;SHT30;62093;37.614;15.072;2023-01-09T10:14:59;16.56;55.26
73780;SHT30;62093;37.614;15.072;2023-01-09T10:22:57;16.56;58.04
73780;SHT30;62093;37.614;15.072;2023-01-09T10:42:43;15.44;42.58
73780;SHT30;62093;37.614;15.072;2023-01-09T10:45:24;15.31;43.56
73780;SHT30;62093;37.614;15.072;2023-01-09T10:47:56;15.49;44.45
73780;SHT30;62093;37.614;15.072;2023-01-09T10:50:36;15.30;39.41
73780;SHT30;62093;37.614;15.072;2023-01-09T10:53:15;15.55;44.56
73780;SHT30;62093;37.614;15.072;2023-01-09T10:55:45;15.43;43.12
73780;SHT30;62093;37.614;15.072;2023-01-09T10:58:19;15.41;43.29
73780;SHT30;62093;37.614;15.072;2023-01-09T11:00:46;15.31;41.51
73780;SHT30;62093;37.614;15.072;2023-01-09T11:03:19;15.37;42.71
73780;SHT30;62093;37.614;15.072;2023-01-09T11:05:53;15.30;43.27
73780;SHT30;62093;37.614;15.072;2023-01-09T11:17:04;15.07;40.47
73780;SHT30;62093;37.614;15.072;2023-01-09T11:19:31;15.06;38.38
73780;SHT30;62093;37.614;15.072;2023-01-09T11:22:16;15.67;43.37
73780;SHT30;62093;37.614;15.072;2023-01-09T11:24:43;15.19;40.35
73780;SHT30;62093;37.614;15.072;2023-01-09T11:29:41;15.16;40.66
73780;SHT30;62093;37.614;15.072;2023-01-09T11:32:22;15.22;40.77
73780;SHT30;62093;37.614;15.072;2023-01-09T11:34:48;15.20;39.12
73780;SHT30;62093;37.614;15.072;2023-01-09T11:37:25;15.27;39.86
73780;SHT30;62093;37.614;15.072;2023-01-09T11:39:52;15.12;40.75
73780;SHT30;62093;37.614;15.072;2023-01-09T11:42:21;15.18;40.69
73780;SHT30;62093;37.614;15.072;2023-01-09T11:45:20;15.29;41.89
73780;SHT30;62093;37.614;15.072;2023-01-09T11:47:47;15.41;42.40
73780;SHT30;62093;37.614;15.072;2023-01-09T11:50:20;15.41;41.18
73780;SHT30;62093;37.614;15.072;2023-01-09T11:53:10;15.43;43.55
73780;SHT30;62093;37.614;15.072;2023-01-09T11:55:37;15.63;44.13
73780;SHT30;62093;37.614;15.072;2023-01-09T11:58:03;15.72;44.87
73780;SHT30;62093;37.614;15.072;2023-01-09T12:00:39;15.55;42.13
73780;SHT30;62093;37.614;15.072;2023-01-09T12:09:33;16.30;47.53
73780;SHT30;62093;37.614;15.072;2023-01-09T12:15:32;16.46;47.69
73780;SHT30;62093;37.614;15.072;2023-01-09T12:23:32;16.53;49.05
73780;SHT30;62093;37.614;15.072;2023-01-09T12:26:15;16.59;49.41
73780;SHT30;62093;37.614;15.072;2023-01-09T12:31:55;16.62;49.94
73780;SHT30;62093;37.614;15.072;2023-01-09T12:39:48;16.66;50.56
73780;SHT30;62093;37.614;15.072;2023-01-09T12:45:27;16.67;51.06
73780;SHT30;62093;37.614;15.072;2023-01-09T12:57:00;16.73;51.56
73780;SHT30;62093;37.614;15.072;2023-01-09T12:59:53;16.72;51.32
73780;SHT30;62093;37.614;15.072;2023-01-09T13:02:41;16.73;51.72
73780;SHT30;62093;37.614;15.072;2023-01-09T13:08:01;16.76;51.78
73780;SHT30;62093;37.614;15.072;2023-01-09T13:10:35;16.77;52.09
73780;SHT30;62093;37.614;15.072;2023-01-09T13:13:09;16.76;51.89
73780;SHT30;62093;37.614;15.072;2023-01-09T13:15:43;16.76;52.26
73780;SHT30;62093;37.614;15.072;2023-01-09T13:18:15;16.77;52.28
73780;SHT30;62093;37.614;15.072;2023-01-09T13:20:49;16.76;52.30
73780;SHT30;62093;37.614;15.072;2023-01-09T13:23:48;16.76;52.63
73780;SHT30;62093;37.614;15.072;2023-01-09T13:26:23;16.76;52.84
73780;SHT30;62093;37.614;15.072;2023-01-09T13:29:06;16.74;52.60
73780;SHT30;62093;37.614;15.072;2023-01-09T13:34:03;16.76;52.60
73780;SHT30;62093;37.614;15.072;2023-01-09T13:36:31;16.74;53.01
73780;SHT30;62093;37.614;15.072;2023-01-09T13:38:59;16.76;52.38
73780;SHT30;62093;37.614;15.072;2023-01-09T13:41:26;16.74;53.09
73780;SHT30;62093;37.614;15.072;2023-01-09T13:44:22;16.76;52.87
73780;SHT30;62093;37.614;15.072;2023-01-09T13:46:51;16.74;52.72
73780;SHT30;62093;37.614;15.072;2023-01-09T13:49:30;16.74;53.19
73780;SHT30;62093;37.614;15.072;2023-01-09T13:52:03;16.74;53.42
73780;SHT30;62093;37.614;15.072;2023-01-09T13:57:35;16.76;53.19
73780;SHT30;62093;37.614;15.072;2023-01-09T14:06:00;16.74;53.35
73780;SHT30;62093;37.614;15.072;2023-01-09T14:08:04;16.74;53.31
73780;SHT30;62093;37.614;15.072;2023-01-09T14:10:37;16.74;52.78
73780;SHT30;62093;37.614;15.072;2023-01-09T14:13:21;16.74;53.55
73780;SHT30;62093;37.614;15.072;2023-01-09T14:15:50;16.73;53.19
73780;SHT30;62093;37.614;15.072;2023-01-09T14:18:25;16.74;53.60
73780;SHT30;62093;37.614;15.072;2023-01-09T14:25:51;16.77;53.61
73780;SHT30;62093;37.614;15.072;2023-01-09T14:38:37;16.81;54.18
73780;SHT30;62093;37.614;15.072;2023-01-09T14:41:20;16.80;53.96
73780;SHT30;62093;37.614;15.072;2023-01-09T14:46:44;16.83;54.54
73780;SHT30;62093;37.614;15.072;2023-01-09T14:49:24;16.79;54.22
73780;SHT30;62093;37.614;15.072;2023-01-09T14:51:54;16.81;54.47
73780;SHT30;62093;37.614;15.072;2023-01-09T14:54:29;16.81;54.13
73780;SHT30;62093;37.614;15.072;2023-01-09T14:56:56;16.80;54.73
73780;SHT30;62093;37.614;15.072;2023-01-09T14:59:22;16.80;54.55
73780;SHT30;62093;37.614;15.072;2023-01-09T15:01:49;16.80;54.76
73780;SHT30;62093;37.614;15.072;2023-01-09T15:04:32;16.84;54.75
73780;SHT30;62093;37.614;15.072;2023-01-09T15:07:00;16.79;54.90
73780;SHT30;62093;37.614;15.072;2023-01-09T15:09:33;16.81;54.59
73780;SHT30;62093;37.614;15.072;2023-01-09T15:12:05;16.81;55.06
73780;SHT30;62093;37.614;15.072;2023-01-09T15:14:37;16.80;55.17
73780;SHT30;62093;37.614;15.072;2023-01-09T15:17:06;16.79;55.14
73780;SHT30;62093;37.614;15.072;2023-01-09T15:19:43;16.79;55.20
73780;SHT30;62093;37.614;15.072;2023-01-09T15:24:46;16.83;55.52
73780;SHT30;62093;37.614;15.072;2023-01-09T15:27:13;16.81;55.40
73780;SHT30;62093;37.614;15.072;2023-01-09T15:29:40;16.80;55.66
73780;SHT30;62093;37.614;15.072;2023-01-09T15:32:20;16.79;55.58
73780;SHT30;62093;37.614;15.072;2023-01-09T15:34:48;16.77;55.80
73780;SHT30;62093;37.614;15.072;2023-01-09T15:37:29;16.79;55.87
73780;SHT30;62093;37.614;15.072;2023-01-09T15:39:59;16.77;56.06
73780;SHT30;62093;37.614;15.072;2023-01-09T15:42:28;16.77;55.75
73780;SHT30;62093;37.614;15.072;2023-01-09T15:47:50;16.76;56.00
73780;SHT30;62093;37.614;15.072;2023-01-09T15:50:19;16.77;55.92
73780;SHT30;62093;37.614;15.072;2023-01-09T15:52:46;16.76;56.22
73780;SHT30;62093;37.614;15.072;2023-01-09T15:55:22;16.79;56.28
73780;SHT30;62093;37.614;15.072;2023-01-09T15:57:50;16.79;56.44
73780;SHT30;62093;37.614;15.072;2023-01-09T16:00:37;16.74;56.49
73780;SHT30;62093;37.614;15.072;2023-01-09T16:03:24;16.73;56.51
73780;SHT30;62093;37.614;15.072;2023-01-09T16:05:57;16.76;56.64
73780;SHT30;62093;37.614;15.072;2023-01-09T16:08:41;16.76;56.66
73780;SHT30;62093;37.614;15.072;2023-01-09T16:11:35;16.74;56.80
73780;SHT30;62093;37.614;15.072;2023-01-09T16:14:17;16.76;56.82
73780;SHT30;62093;37.614;15.072;2023-01-09T16:16:44;16.73;57.01
73780;SHT30;62093;37.614;15.072;2023-01-09T16:21:58;16.72;57.32
73780;SHT30;62093;37.614;15.072;2023-01-09T16:24:31;16.73;57.36
73780;SHT30;62093;37.614;15.072;2023-01-09T16:29:45;16.72;57.63
73780;SHT30;62093;37.614;15.072;2023-01-09T16:32:20;16.70;57.68
73780;SHT30;62093;37.614;15.072;2023-01-09T16:34:56;16.67;57.80
73780;SHT30;62093;37.614;15.072;2023-01-09T16:37:23;16.66;57.92
73780;SHT30;62093;37.614;15.072;2023-01-09T16:40:21;16.66;57.98
73780;SHT30;62093;37.614;15.072;2023-01-09T16:42:57;16.64;58.04
73780;SHT30;62093;37.614;15.072;2023-01-09T16:45:28;16.63;58.19
73780;SHT30;62093;37.614;15.072;2023-01-09T16:47:54;16.63;58.28
73780;SHT30;62093;37.614;15.072;2023-01-09T16:50:23;16.59;58.34
73780;SHT30;62093;37.614;15.072;2023-01-09T16:52:50;16.60;58.50
73780;SHT30;62093;37.614;15.072;2023-01-09T16:55:17;16.60;58.47
73780;SHT30;62093;37.614;15.072;2023-01-09T16:57:43;16.60;58.56
73780;SHT30;62093;37.614;15.072;2023-01-09T17:00:14;16.57;58.59
73780;SHT30;62093;37.614;15.072;2023-01-09T17:02:40;16.56;58.67
73780;SHT30;62093;37.614;15.072;2023-01-09T17:05:07;16.55;58.81
73780;SHT30;62093;37.614;15.072;2023-01-09T17:07:33;16.56;58.80
73780;SHT30;62093;37.614;15.072;2023-01-09T17:09:59;16.55;58.87
73780;SHT30;62093;37.614;15.072;2023-01-09T17:12:25;16.53;58.92
73780;SHT30;62093;37.614;15.072;2023-01-09T17:14:52;16.52;58.97
73780;SHT30;62093;37.614;15.072;2023-01-09T17:17:18;16.53;58.93
73780;SHT30;62093;37.614;15.072;2023-01-09T17:19:47;16.49;59.01
73780;SHT30;62093;37.614;15.072;2023-01-09T17:22:14;16.51;59.14
73780;SHT30;62093;37.614;15.072;2023-01-09T17:24:40;16.51;59.15
73780;SHT30;62093;37.614;15.072;2023-01-09T17:27:34;16.52;59.47
73780;SHT30;62093;37.614;15.072;2023-01-09T17:30:20;16.53;59.20
73780;SHT30;62093;37.614;15.072;2023-01-09T17:32:47;16.56;59.31
73780;SHT30;62093;37.614;15.072;2023-01-09T17:35:14;16.53;59.35
73780;SHT30;62093;37.614;15.072;2023-01-09T17:37:41;16.53;59.38
73780;SHT30;62093;37.614;15.072;2023-01-09T17:40:23;16.52;59.51
73780;SHT30;62093;37.614;15.072;2023-01-09T17:42:49;16.53;59.59
73780;SHT30;62093;37.614;15.072;2023-01-09T17:45:15;16.53;59.53
73780;SHT30;62093;37.614;15.072;2023-01-09T17:47:41;16.52;59.57
73780;SHT30;62093;37.614;15.072;2023-01-09T17:50:17;16.49;59.62
73780;SHT30;62093;37.614;15.072;2023-01-09T17:52:45;16.51;59.71
73780;SHT30;62093;37.614;15.072;2023-01-09T17:55:11;16.51;59.75
73780;SHT30;62093;37.614;15.072;2023-01-09T17:57:37;16.51;59.73
73780;SHT30;62093;37.614;15.072;2023-01-09T18:00:04;16.49;59.79
73780;SHT30;62093;37.614;15.072;2023-01-09T18:02:31;16.52;59.91
73780;SHT30;62093;37.614;15.072;2023-01-09T18:04:57;16.49;59.88
73780;SHT30;62093;37.614;15.072;2023-01-09T18:07:23;16.52;59.89
73780;SHT30;62093;37.614;15.072;2023-01-09T18:09:49;16.52;59.89